Owensville, IN

21:43 CST le 25 novembre 2014 (GMT -0600)
White Church area | Change Station
CLOSE
Current Station
Stations météorologiques personnelles
Location: Princeton, IN
Altitude: 466 ft
Stations météo à proximité
Avis météorologiques actifs: Flood Warning

Alt. 466 ft 38.33 °N, 87.61 °W | Updated 9 minutes ago

Partiellement nuageux
Partiellement nuageux
26.2 ° F
Paraît 26 ° F
N
0.0
Vent Variable Vent de ENE

Aujourd'hui
Haut(e) -- | Bas -- ° F
--% Risque de précip.
Hier
Haut(e) -- | Bas -- ° F
Precip. -- pouce
6:42 AM 4:32 PM
Lune montante, 16% visible
Pression 30.23 pouce
Visibilité 10.0 Miles terrestres
Nuages Ciel dégagé
Refroidissement éolien 26 ° F
Point de rosée 23 ° F
Humidité 89%
Précipitations 0.00 pouce
Profondeur de la couche neigeuse Non disponible.
UV 0 sur 12
Pollen .50 sur 12
Qualité de l'air Non disponible.
Flu Activity Non disponible.
METAR KEVV 260254Z 34004KT 10SM CLR M01/M04 A3022 RMK AO2 SLP236 T10061039 50007

More Conditions Fewer Conditions

Pression 30.23 pouce
Visibilité 10.0 Miles terrestres
Nuages Ciel dégagé
Refroidissement éolien 26 ° F
Point de rosée 23 ° F
Humidité 89%
Précipitations 0.00 pouce
Profondeur de la couche neigeuse Non disponible.
UV 0 sur 12
Pollen .50 sur 12
Qualité de l'air Non disponible.
Flu Activity Non disponible.
METAR KEVV 260254Z 34004KT 10SM CLR M01/M04 A3022 RMK AO2 SLP236 T10061039 50007

More Conditions Fewer Conditions

10-Day Weather Forecast

Almanac

Astronomie

Nov. 25, 2014 Lever Coucher
Temps réel
Crépuscule civil
Crépuscule nautique
Crépuscule astronomique
Lune
Durée de lumière visible
Longueur du jour
Tomorrow will be .
, % of the Moon is Illuminated

Extrêmes aujourd'hui

State Highs State Lows

Community

WunderPhotos

Upload Photos

1,773,677 Photos téléchargées !

WunderBlogs® & News

Nearby

Qualité de l'air

  Qualité de l'air Indice de la qualité de l'air Polluant
Not available.

Épaisseur de neige

Station Depth Altitude

Activité sismique

Ville Distance Mag. Time & Date
Minimum magnitude displayed is 2.5.

Températures des eaux côtières

Lieu Température

Stations météo à proximité